Time,TemperatureF,DewpointF,PressureIn,WindDirection,WindDirectionDegrees,WindSpeedMPH,WindSpeedGustMPH,Humidity,HourlyPrecipIn,Conditions,Clouds,dailyrainin,SoftwareType,DateUTC
2013-09-12 00:00:00,74.7,70.6,29.90,South,174,0.0,0.0,87,0.00,,,0.00,Wunderground v.1.15,2013-09-12 04:00:00,
2013-09-12 00:05:00,74.7,70.6,29.90,South,176,0.0,0.0,87,0.00,,,0.00,Wunderground v.1.15,2013-09-12 04:05:00,
2013-09-12 00:15:00,74.4,70.3,29.90,East,101,0.0,0.0,87,0.00,,,0.00,Wunderground v.1.15,2013-09-12 04:15:00,
2013-09-12 00:20:00,74.2,70.4,29.90,ENE,71,0.0,0.0,88,0.00,,,0.00,Wunderground v.1.15,2013-09-12 04:20:00,
2013-09-12 00:25:00,74.0,70.2,29.90,South,176,0.0,0.0,88,0.00,,,0.00,Wunderground v.1.15,2013-09-12 04:25:00,
2013-09-12 00:30:00,73.9,70.1,29.90,SE,126,0.0,0.0,88,0.00,,,0.00,Wunderground v.1.15,2013-09-12 04:30:00,
2013-09-12 00:35:00,73.9,70.1,29.90,SE,127,0.0,0.0,88,0.00,,,0.00,Wunderground v.1.15,2013-09-12 04:35:00,
2013-09-12 00:45:00,73.9,70.1,29.89,SE,132,0.0,0.0,88,0.00,,,0.00,Wunderground v.1.15,2013-09-12 04:45:00,
2013-09-12 00:55:00,73.9,70.1,29.89,ESE,117,0.0,0.0,88,0.00,,,0.00,Wunderground v.1.15,2013-09-12 04:55:00,
2013-09-12 01:00:00,73.7,69.9,29.89,ESE,117,0.0,0.0,88,0.00,,,0.00,Wunderground v.1.15,2013-09-12 05:00:00,
2013-09-12 01:10:00,73.7,69.9,29.89,ESE,122,0.0,0.0,88,0.00,,,0.00,Wunderground v.1.15,2013-09-12 05:10:00,
2013-09-12 01:15:00,73.7,69.9,29.88,SE,128,0.0,0.0,88,0.00,,,0.00,Wunderground v.1.15,2013-09-12 05:15:00,
2013-09-12 01:25:00,73.7,69.9,29.88,ESE,113,0.0,0.0,88,0.00,,,0.00,Wunderground v.1.15,2013-09-12 05:25:00,
2013-09-12 01:30:00,73.9,69.8,29.88,SSE,150,0.0,0.0,87,0.00,,,0.00,Wunderground v.1.15,2013-09-12 05:30:00,
2013-09-12 01:40:00,74.0,69.5,29.88,ESE,113,0.0,0.0,86,0.00,,,0.00,Wunderground v.1.15,2013-09-12 05:40:00,
2013-09-12 01:45:00,74.2,69.7,29.87,NE,38,0.0,0.0,86,0.00,,,0.00,Wunderground v.1.15,2013-09-12 05:45:00,
2013-09-12 01:55:00,74.2,69.4,29.87,East,89,0.0,0.0,85,0.00,,,0.00,Wunderground v.1.15,2013-09-12 05:55:00,
2013-09-12 02:00:00,74.4,69.6,29.87,East,80,0.0,0.0,85,0.00,,,0.00,Wunderground v.1.15,2013-09-12 06:00:00,
2013-09-12 02:10:00,74.2,69.4,29.87,NE,40,0.0,0.0,85,0.00,,,0.00,Wunderground v.1.15,2013-09-12 06:10:00,
2013-09-12 02:15:00,74.2,69.4,29.87,East,100,0.0,0.0,85,0.00,,,0.00,Wunderground v.1.15,2013-09-12 06:15:00,
2013-09-12 02:25:00,74.0,69.2,29.87,SE,140,0.0,0.0,85,0.00,,,0.00,Wunderground v.1.15,2013-09-12 06:25:00,
2013-09-12 02:30:00,73.9,69.4,29.87,ENE,67,0.0,0.0,86,0.00,,,0.00,Wunderground v.1.15,2013-09-12 06:30:00,
2013-09-12 02:40:00,73.7,69.2,29.87,NNW,328,0.0,0.0,86,0.00,,,0.00,Wunderground v.1.15,2013-09-12 06:40:00,
2013-09-12 02:45:00,73.5,69.1,29.87,SSE,149,0.0,0.0,86,0.00,,,0.00,Wunderground v.1.15,2013-09-12 06:45:00,
2013-09-12 02:55:00,73.3,69.2,29.87,East,91,0.0,0.0,87,0.00,,,0.00,Wunderground v.1.15,2013-09-12 06:55:00,
2013-09-12 03:00:00,73.3,69.2,29.87,ESE,106,0.0,0.0,87,0.00,,,0.00,Wunderground v.1.15,2013-09-12 07:00:00,
2013-09-12 03:10:00,73.3,69.5,29.87,SE,133,0.0,0.0,88,0.00,,,0.00,Wunderground v.1.15,2013-09-12 07:10:00,
2013-09-12 03:15:00,73.3,69.5,29.87,SE,130,0.0,0.0,88,0.00,,,0.00,Wunderground v.1.15,2013-09-12 07:15:00,
2013-09-12 03:25:00,73.2,69.4,29.87,ESE,106,0.0,1.0,88,0.00,,,0.00,Wunderground v.1.15,2013-09-12 07:25:00,
2013-09-12 03:30:00,73.0,69.2,29.87,ESE,109,0.0,1.0,88,0.00,,,0.00,Wunderground v.1.15,2013-09-12 07:30:00,
2013-09-12 03:40:00,72.8,69.4,29.87,ENE,75,0.0,0.0,89,0.00,,,0.00,Wunderground v.1.15,2013-09-12 07:40:00,
2013-09-12 03:45:00,72.7,69.3,29.86,SE,125,0.0,0.0,89,0.00,,,0.00,Wunderground v.1.15,2013-09-12 07:45:00,
2013-09-12 03:55:00,72.5,69.1,29.86,East,91,0.0,0.0,89,0.00,,,0.00,Wunderground v.1.15,2013-09-12 07:55:00,
2013-09-12 04:00:00,72.3,68.9,29.86,SSE,154,0.0,0.0,89,0.00,,,0.00,Wunderground v.1.15,2013-09-12 08:00:00,
2013-09-12 04:10:00,72.1,69.0,29.86,East,97,0.0,0.0,90,0.00,,,0.00,Wunderground v.1.15,2013-09-12 08:10:00,
2013-09-12 04:15:00,72.1,69.0,29.86,East,96,0.0,0.0,90,0.00,,,0.00,Wunderground v.1.15,2013-09-12 08:15:00,
2013-09-12 04:25:00,72.0,68.9,29.86,NW,316,0.0,0.0,90,0.00,,,0.00,Wunderground v.1.15,2013-09-12 08:25:00,
2013-09-12 04:30:00,72.0,68.9,29.85,ENE,57,0.0,0.0,90,0.00,,,0.00,Wunderground v.1.15,2013-09-12 08:30:00,
2013-09-12 04:40:00,71.8,68.7,29.85,NE,45,0.0,0.0,90,0.00,,,0.00,Wunderground v.1.15,2013-09-12 08:40:00,
2013-09-12 04:45:00,71.8,68.7,29.85,East,100,0.0,0.0,90,0.00,,,0.00,Wunderground v.1.15,2013-09-12 08:45:00,
2013-09-12 04:55:00,71.8,68.7,29.85,East,101,0.0,0.0,90,0.00,,,0.00,Wunderground v.1.15,2013-09-12 08:55:00,
2013-09-12 05:00:00,71.6,68.5,29.85,ESE,109,0.0,0.0,90,0.00,,,0.00,Wunderground v.1.15,2013-09-12 09:00:00,
2013-09-12 05:10:00,71.6,68.5,29.85,ENE,61,0.0,0.0,90,0.00,,,0.00,Wunderground v.1.15,2013-09-12 09:10:00,
2013-09-12 05:15:00,71.5,68.4,29.85,NE,48,0.0,0.0,90,0.00,,,0.00,Wunderground v.1.15,2013-09-12 09:15:00,
2013-09-12 05:25:00,71.3,68.2,29.85,South,185,0.0,0.0,90,0.00,,,0.00,Wunderground v.1.15,2013-09-12 09:25:00,
2013-09-12 05:30:00,71.1,68.3,29.85,SE,134,0.0,0.0,91,0.00,,,0.00,Wunderground v.1.15,2013-09-12 09:30:00,
2013-09-12 05:40:00,70.9,68.1,29.85,SE,124,0.0,0.0,91,0.00,,,0.00,Wunderground v.1.15,2013-09-12 09:40:00,
2013-09-12 05:45:00,70.8,68.0,29.85,East,98,0.0,0.0,91,0.00,,,0.00,Wunderground v.1.15,2013-09-12 09:45:00,
2013-09-12 05:55:00,70.6,67.8,29.85,East,98,0.0,0.0,91,0.00,,,0.00,Wunderground v.1.15,2013-09-12 09:55:00,
2013-09-12 06:00:00,70.4,67.6,29.85,East,98,0.0,0.0,91,0.00,,,0.00,Wunderground v.1.15,2013-09-12 10:00:00,
2013-09-12 06:10:00,70.1,67.7,29.85,East,98,0.0,0.0,92,0.00,,,0.00,Wunderground v.1.15,2013-09-12 10:10:00,
2013-09-12 06:15:00,70.1,67.7,29.85,East,98,0.0,0.0,92,0.00,,,0.00,Wunderground v.1.15,2013-09-12 10:15:00,
2013-09-12 06:25:00,69.8,67.4,29.85,East,98,0.0,0.0,92,0.00,,,0.00,Wunderground v.1.15,2013-09-12 10:25:00,
2013-09-12 06:30:00,69.6,67.2,29.85,East,98,0.0,0.0,92,0.00,,,0.00,Wunderground v.1.15,2013-09-12 10:30:00,
2013-09-12 06:40:00,69.8,67.7,29.85,East,98,0.0,0.0,93,0.00,,,0.00,Wunderground v.1.15,2013-09-12 10:40:00,
2013-09-12 06:45:00,69.8,67.7,29.85,East,98,0.0,0.0,93,0.00,,,0.00,Wunderground v.1.15,2013-09-12 10:45:00,
2013-09-12 06:55:00,69.6,67.5,29.85,ENE,61,0.0,0.0,93,0.00,,,0.00,Wunderground v.1.15,2013-09-12 10:55:00,
2013-09-12 07:00:00,69.6,67.5,29.85,ENE,61,0.0,0.0,93,0.00,,,0.00,Wunderground v.1.15,2013-09-12 11:00:00,
2013-09-12 07:10:00,69.3,67.2,29.85,ENE,61,0.0,0.0,93,0.00,,,0.00,Wunderground v.1.15,2013-09-12 11:10:00,
2013-09-12 07:15:00,69.1,67.0,29.85,ENE,61,0.0,0.0,93,0.00,,,0.00,Wunderground v.1.15,2013-09-12 11:15:00,
2013-09-12 07:25:00,68.8,66.7,29.85,ENE,61,0.0,0.0,93,0.00,,,0.00,Wunderground v.1.15,2013-09-12 11:25:00,
2013-09-12 07:30:00,68.8,66.7,29.85,ENE,61,0.0,0.0,93,0.00,,,0.00,Wunderground v.1.15,2013-09-12 11:30:00,
2013-09-12 07:40:00,69.1,67.3,29.85,ENE,61,0.0,0.0,94,0.00,,,0.00,Wunderground v.1.15,2013-09-12 11:40:00,
2013-09-12 07:45:00,69.4,67.6,29.86,ENE,61,0.0,0.0,94,0.00,,,0.00,Wunderground v.1.15,2013-09-12 11:45:00,
2013-09-12 07:55:00,69.6,68.1,29.86,ENE,61,0.0,0.0,95,0.00,,,0.00,Wunderground v.1.15,2013-09-12 11:55:00,
2013-09-12 08:00:00,69.8,68.3,29.86,ENE,58,0.0,0.0,95,0.00,,,0.00,Wunderground v.1.15,2013-09-12 12:00:00,
2013-09-12 08:10:00,70.1,68.6,29.86,ESE,105,0.0,0.0,95,0.00,,,0.00,Wunderground v.1.15,2013-09-12 12:10:00,
2013-09-12 08:15:00,70.3,68.8,29.86,East,95,0.0,0.0,95,0.00,,,0.00,Wunderground v.1.15,2013-09-12 12:15:00,
2013-09-12 08:25:00,70.4,68.6,29.86,East,95,0.0,0.0,94,0.00,,,0.00,Wunderground v.1.15,2013-09-12 12:25:00,
2013-09-12 08:30:00,70.4,68.6,29.85,ESE,119,0.0,0.0,94,0.00,,,0.00,Wunderground v.1.15,2013-09-12 12:30:00,
2013-09-12 08:40:00,70.6,68.8,29.85,ENE,75,0.0,0.0,94,0.00,,,0.00,Wunderground v.1.15,2013-09-12 12:40:00,
2013-09-12 08:45:00,70.6,68.8,29.87,ENE,76,0.0,0.0,94,0.00,,,0.00,Wunderground v.1.15,2013-09-12 12:45:00,
2013-09-12 08:55:00,70.6,68.8,29.87,NE,53,0.0,0.0,94,0.00,,,0.00,Wunderground v.1.15,2013-09-12 12:55:00,
2013-09-12 09:00:00,70.6,68.5,29.88,NE,55,0.0,0.0,93,0.00,,,0.00,Wunderground v.1.15,2013-09-12 13:00:00,
2013-09-12 09:10:00,70.1,67.7,29.88,NNE,24,0.0,6.0,92,0.00,,,0.00,Wunderground v.1.15,2013-09-12 13:10:00,
2013-09-12 09:15:00,69.8,66.7,29.88,NE,46,1.0,6.0,90,0.00,,,0.00,Wunderground v.1.15,2013-09-12 13:15:00,
2013-09-12 09:25:00,69.1,65.4,29.88,NNW,333,1.0,1.0,88,0.00,,,0.00,Wunderground v.1.15,2013-09-12 13:25:00,
2013-09-12 09:30:00,68.8,65.1,29.88,NNE,30,1.0,1.0,88,0.00,,,0.00,Wunderground v.1.15,2013-09-12 13:30:00,
2013-09-12 09:40:00,68.3,64.6,29.88,ENE,58,0.0,1.0,88,0.00,,,0.00,Wunderground v.1.15,2013-09-12 13:40:00,
2013-09-12 09:45:00,68.1,64.7,29.87,ENE,74,0.0,1.0,89,0.00,,,0.00,Wunderground v.1.15,2013-09-12 13:45:00,
2013-09-12 09:55:00,67.9,64.9,29.87,ENE,74,0.0,0.0,90,0.13,,,0.02,Wunderground v.1.15,2013-09-12 13:55:00,
2013-09-12 10:00:00,67.8,65.1,29.89,ENE,73,0.0,0.0,91,0.66,,,0.05,Wunderground v.1.15,2013-09-12 14:00:00,
2013-09-12 10:10:00,66.9,64.5,29.89,SE,130,0.0,0.0,92,0.75,,,0.20,Wunderground v.1.15,2013-09-12 14:10:00,
2013-09-12 10:15:00,66.6,64.2,29.89,ESE,112,0.0,0.0,92,0.24,,,0.23,Wunderground v.1.15,2013-09-12 14:15:00,
2013-09-12 10:25:00,66.4,64.3,29.89,East,81,0.0,0.0,93,0.10,,,0.25,Wunderground v.1.15,2013-09-12 14:25:00,
2013-09-12 10:30:00,66.4,64.3,29.88,East,98,0.0,0.0,93,0.13,,,0.26,Wunderground v.1.15,2013-09-12 14:30:00,
2013-09-12 10:40:00,66.4,64.6,29.88,ENE,76,0.0,0.0,94,0.07,,,0.27,Wunderground v.1.15,2013-09-12 14:40:00,
2013-09-12 10:45:00,66.8,65.0,29.87,ENE,76,0.0,0.0,94,0.04,,,0.27,Wunderground v.1.15,2013-09-12 14:45:00,
2013-09-12 10:55:00,66.9,65.1,29.87,East,101,0.0,0.0,94,0.04,,,0.28,Wunderground v.1.15,2013-09-12 14:55:00,
2013-09-12 11:00:00,67.1,65.6,29.87,NNE,16,0.0,0.0,95,0.31,,,0.30,Wunderground v.1.15,2013-09-12 15:00:00,
2013-09-12 11:10:00,67.4,65.9,29.87,ENE,78,0.0,0.0,95,0.07,,,0.31,Wunderground v.1.15,2013-09-12 15:10:00,
2013-09-12 11:15:00,67.6,66.1,29.87,East,98,0.0,0.0,95,0.05,,,0.32,Wunderground v.1.15,2013-09-12 15:15:00,
2013-09-12 11:25:00,67.8,66.3,29.87,East,98,0.0,0.0,95,0.09,,,0.33,Wunderground v.1.15,2013-09-12 15:25:00,
2013-09-12 11:30:00,67.9,66.4,29.87,East,97,0.0,0.0,95,0.06,,,0.33,Wunderground v.1.15,2013-09-12 15:30:00,
2013-09-12 11:40:00,68.3,66.8,29.87,ESE,110,0.0,0.0,95,0.00,,,0.33,Wunderground v.1.15,2013-09-12 15:40:00,
2013-09-12 11:45:00,68.4,66.9,29.87,South,169,0.0,0.0,95,0.00,,,0.33,Wunderground v.1.15,2013-09-12 15:45:00,
2013-09-12 11:55:00,68.4,66.9,29.87,NNW,333,0.0,0.0,95,0.00,,,0.34,Wunderground v.1.15,2013-09-12 15:55:00,
2013-09-12 12:00:00,68.4,66.9,29.87,SSE,162,0.0,0.0,95,0.00,,,0.34,Wunderground v.1.15,2013-09-12 16:00:00,
2013-09-12 12:10:00,68.4,66.9,29.87,NE,49,0.0,0.0,95,0.00,,,0.34,Wunderground v.1.15,2013-09-12 16:10:00,
2013-09-12 12:15:00,68.4,66.9,29.87,ESE,111,0.0,0.0,95,0.00,,,0.34,Wunderground v.1.15,2013-09-12 16:15:00,
2013-09-12 12:25:00,68.4,66.9,29.87,SE,142,0.0,0.0,95,0.00,,,0.34,Wunderground v.1.15,2013-09-12 16:25:00,
2013-09-12 12:30:00,68.4,66.9,29.86,SSE,159,0.0,0.0,95,0.00,,,0.34,Wunderground v.1.15,2013-09-12 16:30:00,
2013-09-12 12:40:00,68.4,66.9,29.86,SE,146,0.0,0.0,95,0.00,,,0.34,Wunderground v.1.15,2013-09-12 16:40:00,
2013-09-12 12:45:00,68.6,67.1,29.86,ENE,69,0.0,0.0,95,0.00,,,0.34,Wunderground v.1.15,2013-09-12 16:45:00,
2013-09-12 12:55:00,68.4,66.9,29.86,East,91,0.0,0.0,95,0.72,,,0.37,Wunderground v.1.15,2013-09-12 16:55:00,
2013-09-12 13:00:00,68.3,66.8,29.84,ESE,115,0.0,0.0,95,0.14,,,0.39,Wunderground v.1.15,2013-09-12 17:00:00,
2013-09-12 13:10:00,68.6,67.1,29.84,SE,135,0.0,0.0,95,0.04,,,0.39,Wunderground v.1.15,2013-09-12 17:10:00,
2013-09-12 13:15:00,68.9,67.4,29.84,ESE,110,0.0,0.0,95,0.00,,,0.39,Wunderground v.1.15,2013-09-12 17:15:00,
2013-09-12 13:25:00,69.1,67.6,29.84,South,180,0.0,0.0,95,0.00,,,0.39,Wunderground v.1.15,2013-09-12 17:25:00,
2013-09-12 13:30:00,69.1,67.6,29.83,East,84,0.0,0.0,95,0.00,,,0.39,Wunderground v.1.15,2013-09-12 17:30:00,
2013-09-12 13:40:00,69.1,67.6,29.83,East,91,0.0,0.0,95,0.00,,,0.39,Wunderground v.1.15,2013-09-12 17:40:00,
2013-09-12 13:45:00,69.1,67.6,29.83,East,96,0.0,0.0,95,0.00,,,0.39,Wunderground v.1.15,2013-09-12 17:45:00,
2013-09-12 13:55:00,68.9,67.4,29.83,ENE,67,0.0,0.0,95,0.00,,,0.39,Wunderground v.1.15,2013-09-12 17:55:00,
2013-09-12 14:00:00,69.1,67.6,29.82,ENE,67,0.0,0.0,95,0.00,,,0.39,Wunderground v.1.15,2013-09-12 18:00:00,
2013-09-12 14:05:00,68.9,67.4,29.82,ENE,69,0.0,0.0,95,0.00,,,0.39,Wunderground v.1.15,2013-09-12 18:05:00,
2013-09-12 14:15:00,69.3,67.8,29.81,East,100,0.0,1.0,95,0.00,,,0.39,Wunderground v.1.15,2013-09-12 18:15:00,
2013-09-12 14:25:00,69.9,68.4,29.81,NE,45,0.0,0.0,95,0.00,,,0.39,Wunderground v.1.15,2013-09-12 18:25:00,
2013-09-12 14:30:00,70.6,69.1,29.80,NE,45,0.0,0.0,95,0.00,,,0.39,Wunderground v.1.15,2013-09-12 18:30:00,
2013-09-12 14:40:00,71.1,69.3,29.80,ENE,65,0.0,0.0,94,0.00,,,0.39,Wunderground v.1.15,2013-09-12 18:40:00,
2013-09-12 14:45:00,71.3,69.5,29.80,ENE,63,0.0,0.0,94,0.00,,,0.39,Wunderground v.1.15,2013-09-12 18:45:00,
2013-09-12 14:55:00,71.3,69.2,29.80,East,91,0.0,0.0,93,0.00,,,0.39,Wunderground v.1.15,2013-09-12 18:55:00,
2013-09-12 15:00:00,71.1,68.7,29.79,NE,54,0.0,0.0,92,0.00,,,0.39,Wunderground v.1.15,2013-09-12 19:00:00,
2013-09-12 15:10:00,71.6,69.2,29.79,ENE,63,0.0,0.0,92,0.00,,,0.39,Wunderground v.1.15,2013-09-12 19:10:00,
2013-09-12 15:15:00,71.8,69.3,29.78,NE,56,0.0,0.0,92,0.00,,,0.39,Wunderground v.1.15,2013-09-12 19:15:00,
2013-09-12 15:25:00,72.1,69.3,29.78,ENE,61,0.0,0.0,91,0.00,,,0.39,Wunderground v.1.15,2013-09-12 19:25:00,
2013-09-12 15:30:00,71.8,68.7,29.78,East,86,0.0,0.0,90,0.00,,,0.39,Wunderground v.1.15,2013-09-12 19:30:00,
2013-09-12 15:40:00,72.1,68.7,29.78,East,92,0.0,0.0,89,0.00,,,0.39,Wunderground v.1.15,2013-09-12 19:40:00,
2013-09-12 15:45:00,72.7,69.3,29.78,NE,42,0.0,0.0,89,0.00,,,0.39,Wunderground v.1.15,2013-09-12 19:45:00,
2013-09-12 15:55:00,72.7,68.3,29.78,ENE,59,0.0,0.0,86,0.00,,,0.39,Wunderground v.1.15,2013-09-12 19:55:00,
2013-09-12 16:00:00,72.7,67.9,29.77,NNE,13,0.0,0.0,85,0.00,,,0.39,Wunderground v.1.15,2013-09-12 20:00:00,
2013-09-12 16:10:00,72.3,67.5,29.77,ESE,113,0.0,0.0,85,0.00,,,0.39,Wunderground v.1.15,2013-09-12 20:10:00,
2013-09-12 16:15:00,72.7,68.3,29.77,ESE,107,0.0,0.0,86,0.00,,,0.39,Wunderground v.1.15,2013-09-12 20:15:00,
2013-09-12 16:25:00,73.0,67.9,29.77,NW,323,0.0,0.0,84,0.00,,,0.39,Wunderground v.1.15,2013-09-12 20:25:00,
2013-09-12 16:30:00,73.3,67.5,29.77,East,80,0.0,0.0,82,0.00,,,0.39,Wunderground v.1.15,2013-09-12 20:30:00,
2013-09-12 16:40:00,73.5,67.7,29.77,ENE,63,0.0,0.0,82,0.00,,,0.39,Wunderground v.1.15,2013-09-12 20:40:00,
2013-09-12 16:45:00,73.5,67.3,29.76,WSW,254,0.0,0.0,81,0.00,,,0.39,Wunderground v.1.15,2013-09-12 20:45:00,
2013-09-12 16:55:00,73.5,66.9,29.76,NE,55,0.0,0.0,80,0.00,,,0.39,Wunderground v.1.15,2013-09-12 20:55:00,
2013-09-12 17:00:00,73.5,67.7,29.76,East,93,0.0,0.0,82,0.00,,,0.39,Wunderground v.1.15,2013-09-12 21:00:00,
2013-09-12 17:10:00,73.5,67.3,29.76,East,95,0.0,0.0,81,0.00,,,0.39,Wunderground v.1.15,2013-09-12 21:10:00,
2013-09-12 17:15:00,73.5,67.3,29.76,East,84,0.0,1.0,81,0.00,,,0.39,Wunderground v.1.15,2013-09-12 21:15:00,
2013-09-12 17:25:00,73.7,67.1,29.76,NE,47,0.0,0.0,80,0.00,,,0.39,Wunderground v.1.15,2013-09-12 21:25:00,
2013-09-12 17:30:00,73.5,66.9,29.75,SE,140,0.0,0.0,80,0.00,,,0.39,Wunderground v.1.15,2013-09-12 21:30:00,
2013-09-12 17:40:00,73.3,65.7,29.75,NE,37,0.0,0.0,77,0.00,,,0.39,Wunderground v.1.15,2013-09-12 21:40:00,
2013-09-12 17:45:00,73.2,65.6,29.75,NE,39,0.0,0.0,77,0.00,,,0.39,Wunderground v.1.15,2013-09-12 21:45:00,
2013-09-12 17:55:00,73.2,66.3,29.75,NE,39,0.0,0.0,79,0.00,,,0.39,Wunderground v.1.15,2013-09-12 21:55:00,
2013-09-12 18:00:00,73.2,65.9,29.75,NE,46,0.0,0.0,78,0.00,,,0.39,Wunderground v.1.15,2013-09-12 22:00:00,
2013-09-12 18:10:00,73.2,66.7,29.75,ENE,65,0.0,0.0,80,0.00,,,0.39,Wunderground v.1.15,2013-09-12 22:10:00,
2013-09-12 18:15:00,73.2,66.7,29.75,ENE,72,0.0,0.0,80,0.00,,,0.39,Wunderground v.1.15,2013-09-12 22:15:00,
2013-09-12 18:25:00,73.2,65.9,29.75,ENE,64,0.0,0.0,78,0.00,,,0.39,Wunderground v.1.15,2013-09-12 22:25:00,
2013-09-12 18:30:00,73.2,66.3,29.76,ENE,75,0.0,0.0,79,0.00,,,0.39,Wunderground v.1.15,2013-09-12 22:30:00,
2013-09-12 18:40:00,73.0,66.5,29.76,NE,56,0.0,0.0,80,0.00,,,0.39,Wunderground v.1.15,2013-09-12 22:40:00,
2013-09-12 18:45:00,72.8,65.9,29.77,NE,56,0.0,0.0,79,0.00,,,0.39,Wunderground v.1.15,2013-09-12 22:45:00,
2013-09-12 18:55:00,72.3,65.4,29.77,NE,56,0.0,0.0,79,0.00,,,0.39,Wunderground v.1.15,2013-09-12 22:55:00,
2013-09-12 19:00:00,72.0,66.2,29.77,NE,56,0.0,0.0,82,0.00,,,0.39,Wunderground v.1.15,2013-09-12 23:00:00,
2013-09-12 19:10:00,71.1,66.0,29.77,NE,56,0.0,0.0,84,0.00,,,0.39,Wunderground v.1.15,2013-09-12 23:10:00,
2013-09-12 19:15:00,70.6,65.5,29.77,NE,56,0.0,0.0,84,0.00,,,0.39,Wunderground v.1.15,2013-09-12 23:15:00,
2013-09-12 19:25:00,69.8,65.4,29.77,NE,56,0.0,0.0,86,0.00,,,0.39,Wunderground v.1.15,2013-09-12 23:25:00,
2013-09-12 19:30:00,69.3,64.9,29.76,NE,56,0.0,0.0,86,0.00,,,0.39,Wunderground v.1.15,2013-09-12 23:30:00,
2013-09-12 19:40:00,68.8,64.8,29.76,NE,56,0.0,0.0,87,0.00,,,0.39,Wunderground v.1.15,2013-09-12 23:40:00,
2013-09-12 19:45:00,68.3,64.3,29.75,NE,56,0.0,0.0,87,0.00,,,0.39,Wunderground v.1.15,2013-09-12 23:45:00,
2013-09-12 19:55:00,67.6,63.9,29.75,NE,56,0.0,0.0,88,0.00,,,0.39,Wunderground v.1.15,2013-09-12 23:55:00,
2013-09-12 20:00:00,67.3,63.6,29.77,NE,56,0.0,0.0,88,0.00,,,0.39,Wunderground v.1.15,2013-09-13 00:00:00,
2013-09-12 20:10:00,66.6,63.3,29.77,NE,56,0.0,0.0,89,0.00,,,0.39,Wunderground v.1.15,2013-09-13 00:10:00,
2013-09-12 20:15:00,66.3,63.3,29.75,NE,56,0.0,0.0,90,0.00,,,0.39,Wunderground v.1.15,2013-09-13 00:15:00,
2013-09-12 20:25:00,65.5,62.2,29.75,NE,56,0.0,0.0,89,0.00,,,0.39,Wunderground v.1.15,2013-09-13 00:25:00,
2013-09-12 20:30:00,65.2,61.9,29.76,NE,56,0.0,0.0,89,0.00,,,0.39,Wunderground v.1.15,2013-09-13 00:30:00,
2013-09-12 20:40:00,65.0,62.0,29.76,NE,56,0.0,0.0,90,0.00,,,0.39,Wunderground v.1.15,2013-09-13 00:40:00,
2013-09-12 20:45:00,64.8,62.1,29.76,NE,56,0.0,0.0,91,0.00,,,0.39,Wunderground v.1.15,2013-09-13 00:45:00,
2013-09-12 20:55:00,64.5,61.8,29.76,NE,56,0.0,0.0,91,0.00,,,0.39,Wunderground v.1.15,2013-09-13 00:55:00,
2013-09-12 21:00:00,64.3,61.9,29.76,NE,56,0.0,0.0,92,0.00,,,0.39,Wunderground v.1.15,2013-09-13 01:00:00,
2013-09-12 21:09:00,64.3,61.9,29.76,NE,56,0.0,0.0,92,0.00,,,0.39,Wunderground v.1.15,2013-09-13 01:09:00,
2013-09-12 21:15:00,64.3,61.9,29.76,NE,56,0.0,0.0,92,0.00,,,0.39,Wunderground v.1.15,2013-09-13 01:15:00,
2013-09-12 21:24:00,64.5,62.1,29.76,NE,56,0.0,0.0,92,0.00,,,0.39,Wunderground v.1.15,2013-09-13 01:24:00,
2013-09-12 21:30:00,64.7,62.6,29.76,NE,56,0.0,0.0,93,0.00,,,0.39,Wunderground v.1.15,2013-09-13 01:30:00,
2013-09-12 21:39:00,64.8,62.7,29.76,NE,56,0.0,0.0,93,0.00,,,0.39,Wunderground v.1.15,2013-09-13 01:39:00,
2013-09-12 21:45:00,65.0,63.2,29.76,NE,56,0.0,0.0,94,0.00,,,0.39,Wunderground v.1.15,2013-09-13 01:45:00,
2013-09-12 21:55:00,65.0,62.9,29.76,NE,56,0.0,0.0,93,0.00,,,0.39,Wunderground v.1.15,2013-09-13 01:55:00,
2013-09-12 22:00:00,65.0,62.9,29.76,NE,56,0.0,0.0,93,0.00,,,0.39,Wunderground v.1.15,2013-09-13 02:00:00,
2013-09-12 22:09:00,65.0,63.2,29.76,NE,56,0.0,0.0,94,0.00,,,0.39,Wunderground v.1.15,2013-09-13 02:09:00,
2013-09-12 22:15:00,65.0,63.2,29.77,NE,56,0.0,0.0,94,0.00,,,0.39,Wunderground v.1.15,2013-09-13 02:15:00,
2013-09-12 22:25:00,65.0,62.9,29.77,NE,44,0.0,0.0,93,0.00,,,0.39,Wunderground v.1.15,2013-09-13 02:25:00,
2013-09-12 22:30:00,64.8,62.4,29.77,NE,39,0.0,2.0,92,0.00,,,0.39,Wunderground v.1.15,2013-09-13 02:30:00,
2013-09-12 22:40:00,64.8,62.1,29.77,NE,54,0.0,1.0,91,0.08,,,0.41,Wunderground v.1.15,2013-09-13 02:40:00,
2013-09-12 22:45:00,64.7,62.0,29.77,NE,36,0.0,1.0,91,0.08,,,0.41,Wunderground v.1.15,2013-09-13 02:45:00,
2013-09-12 22:55:00,64.3,61.6,29.77,NE,36,0.0,0.0,91,0.04,,,0.41,Wunderground v.1.15,2013-09-13 02:55:00,
2013-09-12 23:00:00,64.3,61.9,29.78,NE,55,0.0,0.0,92,0.00,,,0.41,Wunderground v.1.15,2013-09-13 03:00:00,
2013-09-12 23:09:00,64.2,61.8,29.78,NNE,23,0.0,0.0,92,0.00,,,0.41,Wunderground v.1.15,2013-09-13 03:09:00,
2013-09-12 23:15:00,63.9,61.5,29.79,NNE,15,0.0,0.0,92,0.00,,,0.41,Wunderground v.1.15,2013-09-13 03:15:00,
2013-09-12 23:24:00,63.2,60.5,29.79,NE,34,0.0,0.0,91,0.00,,,0.41,Wunderground v.1.15,2013-09-13 03:24:00,
2013-09-12 23:30:00,62.9,60.2,29.79,NNE,32,0.0,0.0,91,0.00,,,0.41,Wunderground v.1.15,2013-09-13 03:30:00,
2013-09-12 23:39:00,62.6,60.2,29.79,NE,38,0.0,0.0,92,0.00,,,0.41,Wunderground v.1.15,2013-09-13 03:39:00,
2013-09-12 23:45:00,62.1,59.4,29.80,ENE,65,0.0,0.0,91,0.00,,,0.41,Wunderground v.1.15,2013-09-13 03:45:00,
2013-09-12 23:54:00,61.0,58.0,29.80,NE,44,1.0,1.0,90,0.00,,,0.41,Wunderground v.1.15,2013-09-13 03:54:00,